sensor_id;sensor_type;location;lat;lon;timestamp;P1;durP1;ratioP1;P2;durP2;ratioP2
56161;SDS011;42045;52.986;6.014;2022-12-18T00:01:40;116.85;;;51.63;;
56161;SDS011;42045;52.986;6.014;2022-12-18T00:04:07;131.07;;;55.53;;
56161;SDS011;42045;52.986;6.014;2022-12-18T00:06:39;127.85;;;54.13;;
56161;SDS011;42045;52.986;6.014;2022-12-18T00:09:05;137.45;;;55.08;;
56161;SDS011;42045;52.986;6.014;2022-12-18T00:11:31;144.15;;;54.92;;
56161;SDS011;42045;52.986;6.014;2022-12-18T00:13:57;144.77;;;57.83;;
56161;SDS011;42045;52.986;6.014;2022-12-18T00:16:25;141.10;;;56.13;;
56161;SDS011;42045;52.986;6.014;2022-12-18T00:18:53;139.20;;;57.38;;
56161;SDS011;42045;52.986;6.014;2022-12-18T00:21:20;134.43;;;52.28;;
56161;SDS011;42045;52.986;6.014;2022-12-18T00:23:46;126.43;;;49.92;;
56161;SDS011;42045;52.986;6.014;2022-12-18T00:26:14;143.57;;;56.05;;
56161;SDS011;42045;52.986;6.014;2022-12-18T00:28:44;132.23;;;51.55;;
56161;SDS011;42045;52.986;6.014;2022-12-18T00:31:11;137.10;;;51.45;;
56161;SDS011;42045;52.986;6.014;2022-12-18T00:33:39;148.25;;;53.88;;
56161;SDS011;42045;52.986;6.014;2022-12-18T00:36:06;156.23;;;58.88;;
56161;SDS011;42045;52.986;6.014;2022-12-18T00:38:35;153.02;;;55.38;;
56161;SDS011;42045;52.986;6.014;2022-12-18T00:41:02;161.95;;;59.05;;
56161;SDS011;42045;52.986;6.014;2022-12-18T00:43:28;140.23;;;56.03;;
56161;SDS011;42045;52.986;6.014;2022-12-18T00:45:54;144.57;;;53.58;;
56161;SDS011;42045;52.986;6.014;2022-12-18T00:48:20;147.13;;;53.65;;
56161;SDS011;42045;52.986;6.014;2022-12-18T00:50:47;134.98;;;50.22;;
56161;SDS011;42045;52.986;6.014;2022-12-18T00:53:13;144.43;;;51.88;;
56161;SDS011;42045;52.986;6.014;2022-12-18T00:55:39;135.43;;;49.65;;
56161;SDS011;42045;52.986;6.014;2022-12-18T00:58:05;136.13;;;48.33;;
56161;SDS011;42045;52.986;6.014;2022-12-18T01:00:31;136.00;;;49.00;;
56161;SDS011;42045;52.986;6.014;2022-12-18T01:02:56;131.15;;;50.70;;
56161;SDS011;42045;52.986;6.014;2022-12-18T01:05:22;138.18;;;51.50;;
56161;SDS011;42045;52.986;6.014;2022-12-18T01:07:48;133.32;;;51.42;;
56161;SDS011;42045;52.986;6.014;2022-12-18T01:10:13;129.00;;;49.13;;
56161;SDS011;42045;52.986;6.014;2022-12-18T01:12:39;139.25;;;51.60;;
56161;SDS011;42045;52.986;6.014;2022-12-18T01:15:05;144.48;;;51.72;;
56161;SDS011;42045;52.986;6.014;2022-12-18T01:17:32;141.98;;;51.33;;
56161;SDS011;42045;52.986;6.014;2022-12-18T01:19:57;148.98;;;53.92;;
56161;SDS011;42045;52.986;6.014;2022-12-18T01:22:23;140.73;;;51.85;;
56161;SDS011;42045;52.986;6.014;2022-12-18T01:24:49;139.02;;;50.85;;
56161;SDS011;42045;52.986;6.014;2022-12-18T01:27:15;141.50;;;51.45;;
56161;SDS011;42045;52.986;6.014;2022-12-18T01:29:40;126.45;;;47.47;;
56161;SDS011;42045;52.986;6.014;2022-12-18T01:32:06;130.23;;;46.47;;
56161;SDS011;42045;52.986;6.014;2022-12-18T01:34:32;126.10;;;47.53;;
56161;SDS011;42045;52.986;6.014;2022-12-18T01:36:57;120.38;;;43.42;;
56161;SDS011;42045;52.986;6.014;2022-12-18T01:39:23;124.35;;;45.55;;
56161;SDS011;42045;52.986;6.014;2022-12-18T01:41:49;124.53;;;46.90;;
56161;SDS011;42045;52.986;6.014;2022-12-18T01:52:41;116.25;;;45.45;;
56161;SDS011;42045;52.986;6.014;2022-12-18T01:55:09;104.53;;;41.90;;
56161;SDS011;42045;52.986;6.014;2022-12-18T01:57:35;129.65;;;44.45;;
56161;SDS011;42045;52.986;6.014;2022-12-18T02:00:05;110.75;;;44.33;;
56161;SDS011;42045;52.986;6.014;2022-12-18T02:05:02;110.50;;;41.45;;
56161;SDS011;42045;52.986;6.014;2022-12-18T02:07:36;123.75;;;46.17;;
56161;SDS011;42045;52.986;6.014;2022-12-18T02:10:26;117.47;;;42.05;;
56161;SDS011;42045;52.986;6.014;2022-12-18T02:15:36;139.57;;;46.13;;
56161;SDS011;42045;52.986;6.014;2022-12-18T02:18:10;124.88;;;46.63;;
56161;SDS011;42045;52.986;6.014;2022-12-18T02:20:42;123.18;;;45.53;;
56161;SDS011;42045;52.986;6.014;2022-12-18T02:26:30;128.15;;;50.05;;
56161;SDS011;42045;52.986;6.014;2022-12-18T02:29:13;115.38;;;42.90;;
56161;SDS011;42045;52.986;6.014;2022-12-18T02:31:44;127.10;;;48.63;;
56161;SDS011;42045;52.986;6.014;2022-12-18T02:34:14;119.60;;;51.08;;
56161;SDS011;42045;52.986;6.014;2022-12-18T02:36:42;131.50;;;52.03;;
56161;SDS011;42045;52.986;6.014;2022-12-18T02:39:10;118.13;;;49.38;;
56161;SDS011;42045;52.986;6.014;2022-12-18T02:41:38;140.20;;;50.80;;
56161;SDS011;42045;52.986;6.014;2022-12-18T02:44:09;142.27;;;55.67;;
56161;SDS011;42045;52.986;6.014;2022-12-18T02:46:37;136.00;;;51.78;;
56161;SDS011;42045;52.986;6.014;2022-12-18T02:51:56;123.28;;;46.95;;
56161;SDS011;42045;52.986;6.014;2022-12-18T02:56:58;135.95;;;53.55;;
56161;SDS011;42045;52.986;6.014;2022-12-18T02:59:35;131.95;;;56.05;;
56161;SDS011;42045;52.986;6.014;2022-12-18T03:08:07;138.63;;;57.10;;
56161;SDS011;42045;52.986;6.014;2022-12-18T03:13:09;123.35;;;47.53;;
56161;SDS011;42045;52.986;6.014;2022-12-18T03:15:42;132.13;;;49.70;;
56161;SDS011;42045;52.986;6.014;2022-12-18T03:18:18;152.68;;;62.00;;
56161;SDS011;42045;52.986;6.014;2022-12-18T03:21:06;159.88;;;62.60;;
56161;SDS011;42045;52.986;6.014;2022-12-18T03:23:40;151.75;;;58.25;;
56161;SDS011;42045;52.986;6.014;2022-12-18T03:26:10;138.32;;;56.10;;
56161;SDS011;42045;52.986;6.014;2022-12-18T03:28:42;156.75;;;56.80;;
56161;SDS011;42045;52.986;6.014;2022-12-18T03:31:12;159.98;;;62.60;;
56161;SDS011;42045;52.986;6.014;2022-12-18T03:33:41;146.70;;;53.97;;
56161;SDS011;42045;52.986;6.014;2022-12-18T03:36:12;117.67;;;45.97;;
56161;SDS011;42045;52.986;6.014;2022-12-18T03:38:38;122.55;;;49.08;;
56161;SDS011;42045;52.986;6.014;2022-12-18T03:44:09;118.50;;;47.50;;
56161;SDS011;42045;52.986;6.014;2022-12-18T03:46:40;117.65;;;48.88;;
56161;SDS011;42045;52.986;6.014;2022-12-18T03:49:35;101.65;;;44.70;;
56161;SDS011;42045;52.986;6.014;2022-12-18T03:52:20;133.98;;;52.70;;
56161;SDS011;42045;52.986;6.014;2022-12-18T03:55:02;127.53;;;52.17;;
56161;SDS011;42045;52.986;6.014;2022-12-18T03:57:30;144.98;;;58.15;;
56161;SDS011;42045;52.986;6.014;2022-12-18T03:59:59;145.23;;;57.92;;
56161;SDS011;42045;52.986;6.014;2022-12-18T04:02:31;128.10;;;52.50;;
56161;SDS011;42045;52.986;6.014;2022-12-18T04:04:58;127.82;;;53.63;;
56161;SDS011;42045;52.986;6.014;2022-12-18T04:07:28;108.95;;;46.35;;
56161;SDS011;42045;52.986;6.014;2022-12-18T04:09:54;115.95;;;46.80;;
56161;SDS011;42045;52.986;6.014;2022-12-18T04:12:26;124.63;;;53.13;;
56161;SDS011;42045;52.986;6.014;2022-12-18T04:14:53;115.38;;;49.92;;
56161;SDS011;42045;52.986;6.014;2022-12-18T04:17:19;116.95;;;49.88;;
56161;SDS011;42045;52.986;6.014;2022-12-18T04:19:45;107.65;;;43.95;;
56161;SDS011;42045;52.986;6.014;2022-12-18T04:22:11;88.35;;;42.83;;
56161;SDS011;42045;52.986;6.014;2022-12-18T04:24:37;85.13;;;38.08;;
56161;SDS011;42045;52.986;6.014;2022-12-18T04:27:03;82.55;;;38.63;;
56161;SDS011;42045;52.986;6.014;2022-12-18T04:29:29;80.03;;;37.03;;
56161;SDS011;42045;52.986;6.014;2022-12-18T04:31:54;87.18;;;38.78;;
56161;SDS011;42045;52.986;6.014;2022-12-18T04:34:20;75.03;;;35.92;;
56161;SDS011;42045;52.986;6.014;2022-12-18T04:36:46;77.75;;;38.10;;
56161;SDS011;42045;52.986;6.014;2022-12-18T04:39:12;80.68;;;37.22;;
56161;SDS011;42045;52.986;6.014;2022-12-18T04:41:37;75.20;;;37.75;;
56161;SDS011;42045;52.986;6.014;2022-12-18T04:44:03;82.00;;;36.97;;
56161;SDS011;42045;52.986;6.014;2022-12-18T04:46:29;76.10;;;36.85;;
56161;SDS011;42045;52.986;6.014;2022-12-18T04:48:55;74.10;;;35.47;;
56161;SDS011;42045;52.986;6.014;2022-12-18T04:51:21;74.35;;;36.33;;
56161;SDS011;42045;52.986;6.014;2022-12-18T04:53:46;72.05;;;34.33;;
56161;SDS011;42045;52.986;6.014;2022-12-18T04:56:13;71.68;;;33.35;;
56161;SDS011;42045;52.986;6.014;2022-12-18T04:58:40;72.32;;;35.00;;
56161;SDS011;42045;52.986;6.014;2022-12-18T05:01:07;70.68;;;33.42;;
56161;SDS011;42045;52.986;6.014;2022-12-18T05:03:35;72.88;;;31.95;;
56161;SDS011;42045;52.986;6.014;2022-12-18T05:06:01;72.55;;;32.25;;
56161;SDS011;42045;52.986;6.014;2022-12-18T05:08:27;72.90;;;32.10;;
56161;SDS011;42045;52.986;6.014;2022-12-18T05:11:06;62.92;;;32.13;;
56161;SDS011;42045;52.986;6.014;2022-12-18T05:13:34;71.95;;;33.00;;
56161;SDS011;42045;52.986;6.014;2022-12-18T05:16:01;69.90;;;33.15;;
56161;SDS011;42045;52.986;6.014;2022-12-18T05:18:27;71.45;;;33.63;;
56161;SDS011;42045;52.986;6.014;2022-12-18T05:20:54;64.60;;;31.02;;
56161;SDS011;42045;52.986;6.014;2022-12-18T05:23:20;70.13;;;32.33;;
56161;SDS011;42045;52.986;6.014;2022-12-18T05:25:50;66.47;;;33.67;;
56161;SDS011;42045;52.986;6.014;2022-12-18T05:28:17;69.82;;;33.88;;
56161;SDS011;42045;52.986;6.014;2022-12-18T05:30:47;68.18;;;31.77;;
56161;SDS011;42045;52.986;6.014;2022-12-18T05:33:16;65.38;;;31.33;;
56161;SDS011;42045;52.986;6.014;2022-12-18T05:35:43;65.18;;;30.92;;
56161;SDS011;42045;52.986;6.014;2022-12-18T05:38:09;66.65;;;34.08;;
56161;SDS011;42045;52.986;6.014;2022-12-18T05:40:34;68.30;;;31.83;;
56161;SDS011;42045;52.986;6.014;2022-12-18T05:43:01;67.03;;;31.30;;
56161;SDS011;42045;52.986;6.014;2022-12-18T05:45:27;63.15;;;30.70;;
56161;SDS011;42045;52.986;6.014;2022-12-18T05:47:52;65.05;;;30.38;;
56161;SDS011;42045;52.986;6.014;2022-12-18T05:50:18;65.72;;;32.05;;
56161;SDS011;42045;52.986;6.014;2022-12-18T05:52:44;59.95;;;31.35;;
56161;SDS011;42045;52.986;6.014;2022-12-18T05:55:09;64.20;;;30.20;;
56161;SDS011;42045;52.986;6.014;2022-12-18T05:57:35;67.53;;;31.65;;
56161;SDS011;42045;52.986;6.014;2022-12-18T06:00:01;61.65;;;29.90;;
56161;SDS011;42045;52.986;6.014;2022-12-18T06:02:27;60.20;;;28.88;;
56161;SDS011;42045;52.986;6.014;2022-12-18T06:04:53;63.28;;;30.88;;
56161;SDS011;42045;52.986;6.014;2022-12-18T06:07:19;55.88;;;27.33;;
56161;SDS011;42045;52.986;6.014;2022-12-18T06:09:44;63.78;;;29.23;;
56161;SDS011;42045;52.986;6.014;2022-12-18T06:12:10;60.17;;;28.75;;
56161;SDS011;42045;52.986;6.014;2022-12-18T06:14:36;62.58;;;29.75;;
56161;SDS011;42045;52.986;6.014;2022-12-18T06:17:01;54.42;;;26.98;;
56161;SDS011;42045;52.986;6.014;2022-12-18T06:19:27;61.42;;;29.70;;
56161;SDS011;42045;52.986;6.014;2022-12-18T06:21:52;59.63;;;30.20;;
56161;SDS011;42045;52.986;6.014;2022-12-18T06:24:18;60.58;;;29.85;;
56161;SDS011;42045;52.986;6.014;2022-12-18T06:26:43;58.90;;;27.98;;
56161;SDS011;42045;52.986;6.014;2022-12-18T06:29:09;53.90;;;27.77;;
56161;SDS011;42045;52.986;6.014;2022-12-18T06:31:35;55.72;;;25.77;;
56161;SDS011;42045;52.986;6.014;2022-12-18T06:34:02;54.65;;;28.23;;
56161;SDS011;42045;52.986;6.014;2022-12-18T06:36:28;52.58;;;25.45;;
56161;SDS011;42045;52.986;6.014;2022-12-18T06:38:54;48.60;;;24.95;;
56161;SDS011;42045;52.986;6.014;2022-12-18T06:41:22;54.00;;;25.45;;
56161;SDS011;42045;52.986;6.014;2022-12-18T06:43:48;52.10;;;26.63;;
56161;SDS011;42045;52.986;6.014;2022-12-18T06:46:14;55.08;;;25.85;;
56161;SDS011;42045;52.986;6.014;2022-12-18T06:48:40;55.00;;;27.23;;
56161;SDS011;42045;52.986;6.014;2022-12-18T06:51:06;47.35;;;24.90;;
56161;SDS011;42045;52.986;6.014;2022-12-18T06:53:32;52.42;;;26.33;;
56161;SDS011;42045;52.986;6.014;2022-12-18T06:56:01;54.25;;;26.55;;
56161;SDS011;42045;52.986;6.014;2022-12-18T06:58:28;50.85;;;26.13;;
56161;SDS011;42045;52.986;6.014;2022-12-18T07:00:59;49.15;;;24.55;;
56161;SDS011;42045;52.986;6.014;2022-12-18T07:03:25;50.30;;;25.58;;
56161;SDS011;42045;52.986;6.014;2022-12-18T07:05:51;48.63;;;24.27;;
56161;SDS011;42045;52.986;6.014;2022-12-18T07:08:17;52.25;;;24.10;;
56161;SDS011;42045;52.986;6.014;2022-12-18T07:10:43;50.80;;;24.38;;
56161;SDS011;42045;52.986;6.014;2022-12-18T07:13:09;50.42;;;23.98;;
56161;SDS011;42045;52.986;6.014;2022-12-18T07:15:35;42.92;;;23.40;;
56161;SDS011;42045;52.986;6.014;2022-12-18T07:18:00;43.30;;;21.52;;
56161;SDS011;42045;52.986;6.014;2022-12-18T07:20:26;47.40;;;24.02;;
56161;SDS011;42045;52.986;6.014;2022-12-18T07:22:52;47.20;;;22.98;;
56161;SDS011;42045;52.986;6.014;2022-12-18T07:25:17;46.42;;;24.42;;
56161;SDS011;42045;52.986;6.014;2022-12-18T07:27:43;40.45;;;22.25;;
56161;SDS011;42045;52.986;6.014;2022-12-18T07:30:09;43.78;;;21.77;;
56161;SDS011;42045;52.986;6.014;2022-12-18T07:32:35;43.47;;;23.52;;
56161;SDS011;42045;52.986;6.014;2022-12-18T07:35:00;46.70;;;22.88;;
56161;SDS011;42045;52.986;6.014;2022-12-18T07:37:26;47.42;;;24.83;;
56161;SDS011;42045;52.986;6.014;2022-12-18T07:39:52;44.97;;;23.98;;
56161;SDS011;42045;52.986;6.014;2022-12-18T07:42:17;47.65;;;24.33;;
56161;SDS011;42045;52.986;6.014;2022-12-18T07:44:55;46.03;;;23.73;;
56161;SDS011;42045;52.986;6.014;2022-12-18T07:47:21;46.10;;;22.98;;
56161;SDS011;42045;52.986;6.014;2022-12-18T07:49:47;43.38;;;22.27;;
56161;SDS011;42045;52.986;6.014;2022-12-18T07:52:12;44.45;;;21.40;;
56161;SDS011;42045;52.986;6.014;2022-12-18T07:54:38;46.65;;;24.42;;
56161;SDS011;42045;52.986;6.014;2022-12-18T07:57:05;43.50;;;23.70;;
56161;SDS011;42045;52.986;6.014;2022-12-18T07:59:31;44.78;;;23.13;;
56161;SDS011;42045;52.986;6.014;2022-12-18T08:01:57;41.30;;;22.08;;
56161;SDS011;42045;52.986;6.014;2022-12-18T08:04:23;49.08;;;22.98;;
56161;SDS011;42045;52.986;6.014;2022-12-18T08:06:50;43.55;;;23.60;;
56161;SDS011;42045;52.986;6.014;2022-12-18T08:09:15;42.53;;;23.33;;
56161;SDS011;42045;52.986;6.014;2022-12-18T08:11:41;46.92;;;22.63;;
56161;SDS011;42045;52.986;6.014;2022-12-18T08:14:07;43.17;;;22.70;;
56161;SDS011;42045;52.986;6.014;2022-12-18T08:16:32;45.35;;;24.65;;
56161;SDS011;42045;52.986;6.014;2022-12-18T08:18:59;46.33;;;23.88;;
56161;SDS011;42045;52.986;6.014;2022-12-18T08:21:29;43.92;;;22.85;;
56161;SDS011;42045;52.986;6.014;2022-12-18T08:23:56;42.83;;;23.40;;
56161;SDS011;42045;52.986;6.014;2022-12-18T08:26:24;44.40;;;24.13;;
56161;SDS011;42045;52.986;6.014;2022-12-18T08:28:53;48.45;;;22.63;;
56161;SDS011;42045;52.986;6.014;2022-12-18T08:31:19;45.25;;;23.40;;
56161;SDS011;42045;52.986;6.014;2022-12-18T08:33:45;39.42;;;22.50;;
56161;SDS011;42045;52.986;6.014;2022-12-18T08:36:12;41.10;;;22.23;;
56161;SDS011;42045;52.986;6.014;2022-12-18T08:38:38;41.50;;;21.35;;
56161;SDS011;42045;52.986;6.014;2022-12-18T08:41:07;40.03;;;21.55;;
56161;SDS011;42045;52.986;6.014;2022-12-18T08:43:35;39.40;;;21.52;;
56161;SDS011;42045;52.986;6.014;2022-12-18T08:46:20;41.70;;;20.33;;
56161;SDS011;42045;52.986;6.014;2022-12-18T08:48:47;43.03;;;22.58;;
56161;SDS011;42045;52.986;6.014;2022-12-18T08:51:16;38.58;;;21.35;;
56161;SDS011;42045;52.986;6.014;2022-12-18T08:53:42;41.30;;;21.13;;
56161;SDS011;42045;52.986;6.014;2022-12-18T08:56:09;35.95;;;19.50;;
56161;SDS011;42045;52.986;6.014;2022-12-18T08:58:35;36.10;;;19.20;;
56161;SDS011;42045;52.986;6.014;2022-12-18T09:01:01;35.72;;;21.23;;
56161;SDS011;42045;52.986;6.014;2022-12-18T09:03:28;38.08;;;21.60;;
56161;SDS011;42045;52.986;6.014;2022-12-18T09:05:54;38.05;;;21.05;;
56161;SDS011;42045;52.986;6.014;2022-12-18T09:08:19;35.90;;;19.55;;
56161;SDS011;42045;52.986;6.014;2022-12-18T09:10:46;33.38;;;19.77;;
56161;SDS011;42045;52.986;6.014;2022-12-18T09:13:13;36.70;;;19.98;;
56161;SDS011;42045;52.986;6.014;2022-12-18T09:15:41;34.97;;;20.10;;
56161;SDS011;42045;52.986;6.014;2022-12-18T09:18:08;31.45;;;17.33;;
56161;SDS011;42045;52.986;6.014;2022-12-18T09:20:35;30.48;;;18.70;;
56161;SDS011;42045;52.986;6.014;2022-12-18T09:23:01;33.38;;;20.73;;
56161;SDS011;42045;52.986;6.014;2022-12-18T09:25:28;33.40;;;19.23;;
56161;SDS011;42045;52.986;6.014;2022-12-18T09:27:58;29.38;;;18.63;;
56161;SDS011;42045;52.986;6.014;2022-12-18T09:30:25;31.33;;;18.60;;
56161;SDS011;42045;52.986;6.014;2022-12-18T09:32:51;30.35;;;19.17;;
56161;SDS011;42045;52.986;6.014;2022-12-18T09:35:17;34.30;;;18.00;;
56161;SDS011;42045;52.986;6.014;2022-12-18T09:37:42;31.60;;;18.98;;
56161;SDS011;42045;52.986;6.014;2022-12-18T09:40:18;29.15;;;16.88;;
56161;SDS011;42045;52.986;6.014;2022-12-18T09:42:48;31.35;;;18.25;;
56161;SDS011;42045;52.986;6.014;2022-12-18T09:45:18;25.58;;;16.05;;
56161;SDS011;42045;52.986;6.014;2022-12-18T09:47:45;26.15;;;17.05;;
56161;SDS011;42045;52.986;6.014;2022-12-18T09:50:32;30.52;;;17.17;;
56161;SDS011;42045;52.986;6.014;2022-12-18T09:53:02;26.13;;;16.63;;
56161;SDS011;42045;52.986;6.014;2022-12-18T09:55:35;24.95;;;16.70;;
56161;SDS011;42045;52.986;6.014;2022-12-18T09:58:48;25.23;;;15.60;;
56161;SDS011;42045;52.986;6.014;2022-12-18T10:00:59;27.83;;;16.30;;
56161;SDS011;42045;52.986;6.014;2022-12-18T10:03:25;38.90;;;25.25;;
56161;SDS011;42045;52.986;6.014;2022-12-18T10:14:23;33.47;;;20.05;;
56161;SDS011;42045;52.986;6.014;2022-12-18T10:20:18;27.42;;;18.30;;
56161;SDS011;42045;52.986;6.014;2022-12-18T10:23:11;26.67;;;15.73;;
56161;SDS011;42045;52.986;6.014;2022-12-18T10:25:53;22.73;;;15.02;;
56161;SDS011;42045;52.986;6.014;2022-12-18T10:28:23;27.30;;;20.13;;
56161;SDS011;42045;52.986;6.014;2022-12-18T10:30:50;25.33;;;16.92;;
56161;SDS011;42045;52.986;6.014;2022-12-18T10:33:21;24.48;;;18.70;;
56161;SDS011;42045;52.986;6.014;2022-12-18T10:35:51;23.23;;;15.63;;
56161;SDS011;42045;52.986;6.014;2022-12-18T10:40:50;22.05;;;14.45;;
56161;SDS011;42045;52.986;6.014;2022-12-18T10:46:14;21.42;;;14.75;;
56161;SDS011;42045;52.986;6.014;2022-12-18T10:48:53;20.70;;;14.43;;
56161;SDS011;42045;52.986;6.014;2022-12-18T10:51:27;18.75;;;13.48;;
56161;SDS011;42045;52.986;6.014;2022-12-18T10:54:04;20.45;;;13.93;;
56161;SDS011;42045;52.986;6.014;2022-12-18T10:56:38;19.50;;;13.32;;
56161;SDS011;42045;52.986;6.014;2022-12-18T10:59:04;22.13;;;14.48;;
56161;SDS011;42045;52.986;6.014;2022-12-18T11:01:44;19.10;;;13.20;;
56161;SDS011;42045;52.986;6.014;2022-12-18T11:09:24;20.70;;;14.38;;
56161;SDS011;42045;52.986;6.014;2022-12-18T11:12:04;22.67;;;14.55;;
56161;SDS011;42045;52.986;6.014;2022-12-18T11:14:53;25.05;;;15.25;;
56161;SDS011;42045;52.986;6.014;2022-12-18T11:20:01;24.55;;;16.60;;
56161;SDS011;42045;52.986;6.014;2022-12-18T11:22:32;25.63;;;17.65;;
56161;SDS011;42045;52.986;6.014;2022-12-18T11:25:01;24.77;;;14.45;;
56161;SDS011;42045;52.986;6.014;2022-12-18T11:27:30;26.17;;;15.60;;
56161;SDS011;42045;52.986;6.014;2022-12-18T11:30:10;27.58;;;17.45;;
56161;SDS011;42045;52.986;6.014;2022-12-18T11:32:50;28.40;;;16.05;;
56161;SDS011;42045;52.986;6.014;2022-12-18T11:35:29;28.10;;;17.13;;
56161;SDS011;42045;52.986;6.014;2022-12-18T11:40:46;24.77;;;16.15;;
56161;SDS011;42045;52.986;6.014;2022-12-18T11:46:13;26.88;;;16.45;;
56161;SDS011;42045;52.986;6.014;2022-12-18T11:48:47;24.40;;;15.23;;
56161;SDS011;42045;52.986;6.014;2022-12-18T11:51:29;21.33;;;14.15;;
56161;SDS011;42045;52.986;6.014;2022-12-18T11:54:00;22.02;;;15.18;;
56161;SDS011;42045;52.986;6.014;2022-12-18T11:56:36;20.00;;;13.80;;
56161;SDS011;42045;52.986;6.014;2022-12-18T11:59:08;16.95;;;12.65;;
56161;SDS011;42045;52.986;6.014;2022-12-18T12:02:42;16.92;;;11.95;;
56161;SDS011;42045;52.986;6.014;2022-12-18T12:05:01;17.52;;;11.93;;
56161;SDS011;42045;52.986;6.014;2022-12-18T12:10:16;15.60;;;10.00;;
56161;SDS011;42045;52.986;6.014;2022-12-18T12:21:06;12.48;;;9.00;;
56161;SDS011;42045;52.986;6.014;2022-12-18T12:23:42;14.85;;;9.90;;
56161;SDS011;42045;52.986;6.014;2022-12-18T12:39:47;12.02;;;8.60;;
56161;SDS011;42045;52.986;6.014;2022-12-18T12:42:35;12.85;;;9.23;;
56161;SDS011;42045;52.986;6.014;2022-12-18T12:45:23;16.17;;;9.63;;
56161;SDS011;42045;52.986;6.014;2022-12-18T12:47:58;13.52;;;9.38;;
56161;SDS011;42045;52.986;6.014;2022-12-18T12:50:27;12.80;;;9.35;;
56161;SDS011;42045;52.986;6.014;2022-12-18T12:52:58;13.95;;;8.65;;
56161;SDS011;42045;52.986;6.014;2022-12-18T12:55:27;12.10;;;8.98;;
56161;SDS011;42045;52.986;6.014;2022-12-18T13:01:00;14.93;;;8.35;;
56161;SDS011;42045;52.986;6.014;2022-12-18T13:04:08;13.45;;;8.88;;
56161;SDS011;42045;52.986;6.014;2022-12-18T13:09:15;13.50;;;9.80;;
56161;SDS011;42045;52.986;6.014;2022-12-18T13:14:27;12.27;;;8.85;;
56161;SDS011;42045;52.986;6.014;2022-12-18T13:25:01;11.32;;;8.55;;
56161;SDS011;42045;52.986;6.014;2022-12-18T13:36:00;12.25;;;8.00;;
56161;SDS011;42045;52.986;6.014;2022-12-18T13:41:04;12.13;;;8.45;;
56161;SDS011;42045;52.986;6.014;2022-12-18T13:43:53;11.33;;;7.47;;
56161;SDS011;42045;52.986;6.014;2022-12-18T13:51:31;13.32;;;8.13;;
56161;SDS011;42045;52.986;6.014;2022-12-18T13:56:30;12.98;;;8.07;;
56161;SDS011;42045;52.986;6.014;2022-12-18T14:01:59;11.02;;;7.55;;
56161;SDS011;42045;52.986;6.014;2022-12-18T14:04:31;9.27;;;7.18;;
56161;SDS011;42045;52.986;6.014;2022-12-18T14:09:41;9.18;;;6.40;;
56161;SDS011;42045;52.986;6.014;2022-12-18T14:12:44;12.30;;;7.97;;
56161;SDS011;42045;52.986;6.014;2022-12-18T14:17:51;16.88;;;7.85;;
56161;SDS011;42045;52.986;6.014;2022-12-18T14:20:19;10.18;;;7.13;;
56161;SDS011;42045;52.986;6.014;2022-12-18T14:22:46;10.02;;;7.30;;
56161;SDS011;42045;52.986;6.014;2022-12-18T14:33:00;10.10;;;6.95;;
56161;SDS011;42045;52.986;6.014;2022-12-18T14:35:26;11.55;;;6.97;;
56161;SDS011;42045;52.986;6.014;2022-12-18T14:37:52;10.45;;;6.78;;
56161;SDS011;42045;52.986;6.014;2022-12-18T14:40:18;10.60;;;7.25;;
56161;SDS011;42045;52.986;6.014;2022-12-18T14:42:44;9.88;;;7.63;;
56161;SDS011;42045;52.986;6.014;2022-12-18T14:48:05;10.15;;;7.18;;
56161;SDS011;42045;52.986;6.014;2022-12-18T14:50:33;17.85;;;11.52;;
56161;SDS011;42045;52.986;6.014;2022-12-18T14:52:59;32.83;;;20.17;;
56161;SDS011;42045;52.986;6.014;2022-12-18T14:55:25;25.95;;;15.13;;
56161;SDS011;42045;52.986;6.014;2022-12-18T14:57:52;16.63;;;10.00;;
56161;SDS011;42045;52.986;6.014;2022-12-18T15:00:20;17.33;;;11.40;;
56161;SDS011;42045;52.986;6.014;2022-12-18T15:02:55;12.00;;;8.88;;
56161;SDS011;42045;52.986;6.014;2022-12-18T15:05:26;12.43;;;7.75;;
56161;SDS011;42045;52.986;6.014;2022-12-18T15:07:59;10.90;;;8.20;;
56161;SDS011;42045;52.986;6.014;2022-12-18T15:10:27;10.23;;;7.63;;
56161;SDS011;42045;52.986;6.014;2022-12-18T15:18:21;12.95;;;8.93;;
56161;SDS011;42045;52.986;6.014;2022-12-18T15:20:55;12.48;;;7.57;;
56161;SDS011;42045;52.986;6.014;2022-12-18T15:23:25;13.40;;;9.77;;
56161;SDS011;42045;52.986;6.014;2022-12-18T15:25:57;10.95;;;7.18;;
56161;SDS011;42045;52.986;6.014;2022-12-18T15:28:37;11.00;;;7.00;;
56161;SDS011;42045;52.986;6.014;2022-12-18T15:31:23;11.45;;;8.52;;
56161;SDS011;42045;52.986;6.014;2022-12-18T15:34:09;12.60;;;7.43;;
56161;SDS011;42045;52.986;6.014;2022-12-18T15:36:38;11.13;;;7.10;;
56161;SDS011;42045;52.986;6.014;2022-12-18T15:39:04;10.50;;;7.18;;
56161;SDS011;42045;52.986;6.014;2022-12-18T15:41:33;15.02;;;10.50;;
56161;SDS011;42045;52.986;6.014;2022-12-18T15:44:00;12.43;;;8.60;;
56161;SDS011;42045;52.986;6.014;2022-12-18T15:46:26;12.15;;;9.48;;
56161;SDS011;42045;52.986;6.014;2022-12-18T15:48:55;11.27;;;7.75;;
56161;SDS011;42045;52.986;6.014;2022-12-18T15:53:56;11.00;;;6.65;;
56161;SDS011;42045;52.986;6.014;2022-12-18T15:56:24;10.50;;;8.13;;
56161;SDS011;42045;52.986;6.014;2022-12-18T15:59:13;12.38;;;7.47;;
56161;SDS011;42045;52.986;6.014;2022-12-18T16:01:41;11.57;;;7.40;;
56161;SDS011;42045;52.986;6.014;2022-12-18T16:04:15;9.18;;;6.93;;
56161;SDS011;42045;52.986;6.014;2022-12-18T16:06:42;10.82;;;7.50;;
56161;SDS011;42045;52.986;6.014;2022-12-18T16:09:08;10.70;;;6.90;;
56161;SDS011;42045;52.986;6.014;2022-12-18T16:11:34;11.43;;;7.35;;
56161;SDS011;42045;52.986;6.014;2022-12-18T16:16:43;11.13;;;7.20;;
56161;SDS011;42045;52.986;6.014;2022-12-18T16:19:10;11.70;;;7.38;;
56161;SDS011;42045;52.986;6.014;2022-12-18T16:21:35;9.32;;;7.18;;
56161;SDS011;42045;52.986;6.014;2022-12-18T16:24:01;13.32;;;8.73;;
56161;SDS011;42045;52.986;6.014;2022-12-18T16:26:27;11.13;;;8.38;;
56161;SDS011;42045;52.986;6.014;2022-12-18T16:28:53;17.42;;;10.63;;
56161;SDS011;42045;52.986;6.014;2022-12-18T16:31:19;14.07;;;7.00;;
56161;SDS011;42045;52.986;6.014;2022-12-18T16:33:45;13.30;;;8.55;;
56161;SDS011;42045;52.986;6.014;2022-12-18T16:36:11;10.10;;;7.03;;
56161;SDS011;42045;52.986;6.014;2022-12-18T16:38:37;14.48;;;9.00;;
56161;SDS011;42045;52.986;6.014;2022-12-18T16:41:06;10.93;;;8.15;;
56161;SDS011;42045;52.986;6.014;2022-12-18T16:43:56;10.98;;;7.85;;
56161;SDS011;42045;52.986;6.014;2022-12-18T16:46:22;14.07;;;8.57;;
56161;SDS011;42045;52.986;6.014;2022-12-18T16:48:47;11.63;;;7.78;;
56161;SDS011;42045;52.986;6.014;2022-12-18T16:51:13;15.00;;;8.30;;
56161;SDS011;42045;52.986;6.014;2022-12-18T16:53:39;13.27;;;8.77;;
56161;SDS011;42045;52.986;6.014;2022-12-18T16:56:05;12.98;;;8.60;;
56161;SDS011;42045;52.986;6.014;2022-12-18T16:58:31;10.88;;;8.23;;
56161;SDS011;42045;52.986;6.014;2022-12-18T17:00:57;11.30;;;7.90;;
56161;SDS011;42045;52.986;6.014;2022-12-18T17:03:22;13.98;;;8.48;;
56161;SDS011;42045;52.986;6.014;2022-12-18T17:05:48;12.93;;;8.18;;
56161;SDS011;42045;52.986;6.014;2022-12-18T17:08:13;10.95;;;8.18;;